createdAt,value
2024-02-03T00:00:05.120Z,63.99
2024-02-03T00:02:31.721Z,63.93
2024-02-03T00:04:58.352Z,63.75
2024-02-03T00:07:25.089Z,63.67
2024-02-03T00:09:51.649Z,63.63
2024-02-03T00:12:20.800Z,63.44
2024-02-03T00:14:47.552Z,64.16
2024-02-03T00:17:14.596Z,63.38
2024-02-03T00:19:42.055Z,64.03
2024-02-03T00:22:08.816Z,63.55
2024-02-03T00:24:35.382Z,63.62
2024-02-03T00:27:03.758Z,63.40
2024-02-03T00:29:30.327Z,63.67
2024-02-03T00:31:57.264Z,64.07
2024-02-03T00:34:24.223Z,63.59
2024-02-03T00:36:51.845Z,63.53
2024-02-03T00:39:18.706Z,64.07
2024-02-03T00:41:45.234Z,63.33
2024-02-03T00:44:11.836Z,64.09
2024-02-03T00:46:38.436Z,63.52
2024-02-03T00:49:05.091Z,64.26
2024-02-03T00:51:31.707Z,63.56
2024-02-03T00:53:58.362Z,63.98
2024-02-03T00:56:25.042Z,64.00
2024-02-03T00:58:51.625Z,64.06
2024-02-03T01:01:18.200Z,63.63
2024-02-03T01:03:44.959Z,64.09
2024-02-03T01:06:11.668Z,63.75
2024-02-03T01:08:38.312Z,63.65
2024-02-03T01:11:05.029Z,63.41
2024-02-03T01:13:31.804Z,63.54
2024-02-03T01:15:59.096Z,63.93
2024-02-03T01:18:26.134Z,64.03
2024-02-03T01:20:52.846Z,63.98
2024-02-03T01:23:19.441Z,64.19
2024-02-03T01:25:46.017Z,63.95
2024-02-03T01:28:12.774Z,63.77
2024-02-03T01:30:39.374Z,63.60
2024-02-03T01:33:06.145Z,63.69
2024-02-03T01:35:32.617Z,64.16
2024-02-03T01:37:59.251Z,63.88
2024-02-03T01:40:29.335Z,63.88
2024-02-03T01:43:02.525Z,64.15
2024-02-03T01:45:29.250Z,64.06
2024-02-03T01:47:56.770Z,63.60
2024-02-03T01:50:23.925Z,63.57
2024-02-03T01:52:51.515Z,63.49
2024-02-03T01:55:19.363Z,63.48
2024-02-03T01:57:46.869Z,63.82
2024-02-03T02:00:14.196Z,64.17
2024-02-03T02:02:40.831Z,63.56
2024-02-03T02:05:07.891Z,63.64
2024-02-03T02:07:42.601Z,64.42
2024-02-03T02:10:13.255Z,64.11
2024-02-03T02:12:40.099Z,64.28
2024-02-03T02:15:07.176Z,64.21
2024-02-03T02:17:34.828Z,63.49
2024-02-03T02:20:07.341Z,64.33
2024-02-03T02:22:38.000Z,63.50
2024-02-03T02:25:08.030Z,63.99
2024-02-03T02:27:35.037Z,64.49
2024-02-03T02:30:01.667Z,64.59
2024-02-03T02:32:28.314Z,63.35
2024-02-03T02:34:54.922Z,63.89
2024-02-03T02:37:22.413Z,63.75
2024-02-03T02:39:49.262Z,64.25
2024-02-03T02:42:16.970Z,64.19
2024-02-03T02:44:43.691Z,63.74
2024-02-03T02:47:10.253Z,64.33
2024-02-03T02:49:36.947Z,63.82
2024-02-03T02:52:03.723Z,63.33
2024-02-03T02:54:30.337Z,64.15
2024-02-03T02:56:56.916Z,63.79
2024-02-03T02:59:23.638Z,64.51
2024-02-03T03:01:50.294Z,64.15
2024-02-03T03:04:17.133Z,63.36
2024-02-03T03:06:43.648Z,63.78
2024-02-03T03:09:10.316Z,63.84
2024-02-03T03:11:37.740Z,63.49
2024-02-03T03:14:07.004Z,63.74
2024-02-03T03:16:33.681Z,63.98
2024-02-03T03:19:00.376Z,63.93
2024-02-03T03:21:26.944Z,64.13
2024-02-03T03:23:53.608Z,63.50
2024-02-03T03:26:20.143Z,64.42
2024-02-03T03:28:46.729Z,63.58
2024-02-03T03:31:13.216Z,64.35
2024-02-03T03:33:39.959Z,63.84
2024-02-03T03:36:07.124Z,64.05
2024-02-03T03:38:35.657Z,64.38
2024-02-03T03:41:02.148Z,64.29
2024-02-03T03:43:28.669Z,64.43
2024-02-03T03:45:55.281Z,64.45
2024-02-03T03:48:22.043Z,64.53
2024-02-03T03:50:49.549Z,64.05
2024-02-03T03:53:16.206Z,64.20
2024-02-03T03:55:42.853Z,63.91
2024-02-03T03:58:09.392Z,64.39
2024-02-03T04:00:35.955Z,64.13
2024-02-03T04:03:02.563Z,64.15
2024-02-03T04:05:29.197Z,64.40
2024-02-03T04:07:55.849Z,63.92
2024-02-03T04:10:22.389Z,64.32
2024-02-03T04:12:49.057Z,64.25
2024-02-03T04:15:15.801Z,63.98
2024-02-03T04:17:42.410Z,63.94
2024-02-03T04:20:09.682Z,63.92
2024-02-03T04:22:36.446Z,63.82
2024-02-03T04:25:02.990Z,64.13
2024-02-03T04:27:29.578Z,63.75
2024-02-03T04:29:56.175Z,63.95
2024-02-03T04:32:22.848Z,64.79
2024-02-03T04:34:49.487Z,64.47
2024-02-03T04:37:16.123Z,64.63
2024-02-03T04:39:43.516Z,63.94
2024-02-03T04:42:10.499Z,64.42
2024-02-03T04:44:37.199Z,64.29
2024-02-03T04:47:04.787Z,64.17
2024-02-03T04:49:31.531Z,64.15
2024-02-03T04:52:01.852Z,64.34
2024-02-03T04:54:29.285Z,64.27
2024-02-03T04:56:56.900Z,63.74
2024-02-03T04:59:23.428Z,63.99
2024-02-03T05:01:50.017Z,64.41
2024-02-03T05:04:16.828Z,64.55
2024-02-03T05:06:43.445Z,64.08
2024-02-03T05:09:10.169Z,64.38
2024-02-03T05:11:36.995Z,63.92
2024-02-03T05:14:03.458Z,64.48
2024-02-03T05:16:30.151Z,64.50
2024-02-03T05:18:57.494Z,64.24
2024-02-03T05:21:24.123Z,64.49
2024-02-03T05:23:52.790Z,64.92
2024-02-03T05:26:19.371Z,64.13
2024-02-03T05:28:45.896Z,64.79
2024-02-03T05:31:19.406Z,64.77
2024-02-03T05:33:46.025Z,65.01
2024-02-03T05:36:13.006Z,64.38
2024-02-03T05:38:39.651Z,64.44
2024-02-03T05:41:08.991Z,65.01
2024-02-03T05:43:35.489Z,64.39
2024-02-03T05:46:02.097Z,64.74
2024-02-03T05:48:28.670Z,64.52
2024-02-03T05:50:55.246Z,64.17
2024-02-03T05:53:21.770Z,65.01
2024-02-03T05:55:48.346Z,64.55
2024-02-03T05:58:15.824Z,64.88
2024-02-03T06:00:42.484Z,65.00
2024-02-03T06:03:09.086Z,64.38
2024-02-03T06:05:39.192Z,64.12
2024-02-03T06:08:11.205Z,64.68
2024-02-03T06:10:37.938Z,64.61
2024-02-03T06:13:07.383Z,64.85
2024-02-03T06:15:34.134Z,64.79
2024-02-03T06:18:00.826Z,64.05
2024-02-03T06:20:27.385Z,64.97
2024-02-03T06:22:53.876Z,64.45
2024-02-03T06:25:20.422Z,64.33
2024-02-03T06:27:47.025Z,64.12
2024-02-03T06:30:14.045Z,64.73
2024-02-03T06:32:40.611Z,65.03
2024-02-03T06:35:07.650Z,64.42
2024-02-03T06:37:34.209Z,64.36
2024-02-03T06:40:00.744Z,64.42
2024-02-03T06:42:27.279Z,64.81
2024-02-03T06:44:53.889Z,64.24
2024-02-03T06:47:20.500Z,64.60
2024-02-03T06:49:47.521Z,64.53
2024-02-03T06:52:14.108Z,64.11
2024-02-03T06:54:40.683Z,65.03
2024-02-03T06:57:07.304Z,64.58
2024-02-03T06:59:33.830Z,64.65
2024-02-03T07:02:00.485Z,64.45
2024-02-03T07:04:27.033Z,64.69
2024-02-03T07:06:53.678Z,64.93
2024-02-03T07:09:20.582Z,64.78
2024-02-03T07:11:56.509Z,64.49
2024-02-03T07:14:28.270Z,65.11
2024-02-03T07:16:54.708Z,64.50
2024-02-03T07:19:21.301Z,64.90
2024-02-03T07:21:47.974Z,64.42
2024-02-03T07:24:15.376Z,64.48
2024-02-03T07:26:41.911Z,65.54
2024-02-03T07:29:08.779Z,64.89
2024-02-03T07:31:35.295Z,65.17
2024-02-03T07:34:01.955Z,65.51
2024-02-03T07:36:29.181Z,65.42
2024-02-03T07:38:55.747Z,65.33
2024-02-03T07:41:22.299Z,65.39
2024-02-03T07:43:48.895Z,64.98
2024-02-03T07:46:15.454Z,65.51
2024-02-03T07:48:42.182Z,65.19
2024-02-03T07:51:09.438Z,65.41
2024-02-03T07:53:36.160Z,65.41
2024-02-03T07:56:03.073Z,65.12
2024-02-03T07:58:29.585Z,65.30
2024-02-03T08:00:57.678Z,64.88
2024-02-03T08:03:24.286Z,64.88
2024-02-03T08:05:50.970Z,64.94
2024-02-03T08:08:17.508Z,64.93
2024-02-03T08:10:44.064Z,65.79
2024-02-03T08:13:10.672Z,64.92
2024-02-03T08:15:37.256Z,65.13
2024-02-03T08:18:06.222Z,65.26
2024-02-03T08:20:32.764Z,64.86
2024-02-03T08:22:59.459Z,65.41
2024-02-03T08:25:26.916Z,65.70
2024-02-03T08:27:53.617Z,65.19
2024-02-03T08:30:20.220Z,65.42
2024-02-03T08:32:46.837Z,64.92
2024-02-03T08:37:42.800Z,64.73
2024-02-03T08:40:09.668Z,65.17
2024-02-03T08:42:36.323Z,65.43
2024-02-03T08:45:03.059Z,65.03
2024-02-03T08:47:29.598Z,64.79
2024-02-03T08:49:57.923Z,65.18
2024-02-03T08:52:24.594Z,65.25
2024-02-03T08:54:51.429Z,65.08
2024-02-03T08:57:18.032Z,65.69
2024-02-03T08:59:44.624Z,65.55
2024-02-03T09:02:11.215Z,65.16
2024-02-03T09:04:37.869Z,64.91
2024-02-03T09:07:04.744Z,65.64
2024-02-03T09:09:31.211Z,65.16
2024-02-03T09:11:57.724Z,65.57
2024-02-03T09:14:24.246Z,64.82
2024-02-03T09:16:50.830Z,65.63
2024-02-03T09:19:17.519Z,65.45
2024-02-03T09:21:44.096Z,64.66
2024-02-03T09:24:10.794Z,65.30
2024-02-03T09:26:40.586Z,65.09
2024-02-03T09:29:08.561Z,65.57
2024-02-03T09:31:35.534Z,65.18
2024-02-03T09:34:06.837Z,65.05
2024-02-03T09:36:34.029Z,65.32
2024-02-03T09:39:01.172Z,65.57
2024-02-03T09:41:28.347Z,65.42
2024-02-03T09:43:55.490Z,65.18
2024-02-03T09:46:22.074Z,64.69
2024-02-03T09:48:48.824Z,65.09
2024-02-03T09:51:15.564Z,65.21
2024-02-03T09:53:44.369Z,64.88
2024-02-03T09:56:11.115Z,65.10
2024-02-03T09:58:39.398Z,65.40
2024-02-03T10:01:07.407Z,65.56
2024-02-03T10:03:34.741Z,65.47
2024-02-03T10:06:03.370Z,65.17
2024-02-03T10:08:33.226Z,64.82
2024-02-03T10:10:59.865Z,65.37
2024-02-03T10:13:27.102Z,65.71
2024-02-03T10:16:04.073Z,65.26
2024-02-03T10:18:34.793Z,65.30
2024-02-03T10:21:02.149Z,65.22
2024-02-03T10:23:28.777Z,65.81
2024-02-03T10:25:59.060Z,65.61
2024-02-03T10:28:25.665Z,65.67
2024-02-03T10:30:53.916Z,65.41
2024-02-03T10:33:20.590Z,65.59
2024-02-03T10:35:47.480Z,65.41
2024-02-03T10:38:14.465Z,65.40
2024-02-03T10:40:40.994Z,65.79
2024-02-03T10:43:15.106Z,65.21
2024-02-03T10:45:44.687Z,65.34
2024-02-03T10:48:17.496Z,64.91
2024-02-03T10:50:58.937Z,65.69
2024-02-03T10:53:31.638Z,65.20
2024-02-03T10:56:03.064Z,65.68
2024-02-03T10:58:30.394Z,65.67
2024-02-03T11:00:58.816Z,65.29
2024-02-03T11:03:25.573Z,65.70
2024-02-03T11:05:55.800Z,65.64
2024-02-03T11:08:22.705Z,64.94
2024-02-03T11:10:50.489Z,65.29
2024-02-03T11:13:24.180Z,64.91
2024-02-03T11:15:58.176Z,65.03
2024-02-03T11:18:26.038Z,65.14
2024-02-03T11:21:06.354Z,64.86
2024-02-03T11:23:33.200Z,65.51
2024-02-03T11:26:00.627Z,65.57
2024-02-03T11:28:33.010Z,65.34
2024-02-03T11:31:05.748Z,65.70
2024-02-03T11:33:47.512Z,65.44
2024-02-03T11:36:14.533Z,65.25
2024-02-03T11:38:44.330Z,64.88
2024-02-03T11:41:11.051Z,64.90
2024-02-03T11:43:38.218Z,65.78
2024-02-03T11:46:07.082Z,65.65
2024-02-03T11:48:34.050Z,65.62
2024-02-03T11:51:00.880Z,64.88
2024-02-03T11:53:28.351Z,65.09
2024-02-03T11:55:55.466Z,65.52
2024-02-03T11:58:22.307Z,65.06
2024-02-03T12:00:49.252Z,65.18
2024-02-03T12:03:16.087Z,65.60
2024-02-03T12:05:43.240Z,64.81
2024-02-03T12:08:09.969Z,64.96
2024-02-03T12:10:36.473Z,64.75
2024-02-03T12:13:03.830Z,65.42
2024-02-03T12:15:30.759Z,64.81
2024-02-03T12:18:05.155Z,65.29
2024-02-03T12:20:32.048Z,64.98
2024-02-03T12:22:58.534Z,64.94
2024-02-03T12:25:25.198Z,65.31
2024-02-03T12:27:51.917Z,65.23
2024-02-03T12:30:20.046Z,65.09
2024-02-03T12:32:47.257Z,65.29
2024-02-03T12:35:15.078Z,64.84
2024-02-03T12:37:42.345Z,64.78
2024-02-03T12:40:12.848Z,65.75
2024-02-03T12:42:39.428Z,65.45
2024-02-03T12:45:07.475Z,65.45
2024-02-03T12:47:34.886Z,64.86
2024-02-03T12:50:01.805Z,65.12
2024-02-03T12:52:29.497Z,65.18
2024-02-03T12:54:56.703Z,65.61
2024-02-03T12:57:23.347Z,64.67
2024-02-03T12:59:49.958Z,65.38
2024-02-03T13:02:16.591Z,65.36
2024-02-03T13:04:43.166Z,65.89
2024-02-03T13:07:09.799Z,65.31
2024-02-03T13:09:36.367Z,65.48
2024-02-03T13:12:03.036Z,65.21
2024-02-03T13:14:30.082Z,64.79
2024-02-03T13:16:56.685Z,64.80
2024-02-03T13:19:23.211Z,65.51
2024-02-03T13:21:49.786Z,65.10
2024-02-03T13:24:16.489Z,64.92
2024-02-03T13:26:45.628Z,64.73
2024-02-03T13:29:12.146Z,65.34
2024-02-03T13:31:38.664Z,64.79
2024-02-03T13:34:05.461Z,65.45
2024-02-03T13:36:32.098Z,65.08
2024-02-03T13:38:58.725Z,65.40
2024-02-03T13:41:25.467Z,64.92
2024-02-03T13:43:52.044Z,65.45
2024-02-03T13:46:18.696Z,65.28
2024-02-03T13:48:45.404Z,65.44
2024-02-03T13:51:12.180Z,64.91
2024-02-03T13:53:38.969Z,64.78
2024-02-03T13:56:06.329Z,65.34
2024-02-03T13:58:33.054Z,64.88
2024-02-03T14:00:59.867Z,64.61
2024-02-03T14:03:26.516Z,64.93
2024-02-03T14:05:53.121Z,65.23
2024-02-03T14:08:22.601Z,64.55
2024-02-03T14:10:49.468Z,65.05
2024-02-03T14:13:15.986Z,65.00
2024-02-03T14:15:42.568Z,64.98
2024-02-03T14:18:09.238Z,65.01
2024-02-03T14:20:36.616Z,64.91
2024-02-03T14:23:05.220Z,64.94
2024-02-03T14:25:32.055Z,65.05
2024-02-03T14:27:58.643Z,65.25
2024-02-03T14:30:25.193Z,65.00
2024-02-03T14:32:51.797Z,64.86
2024-02-03T14:35:20.120Z,64.99
2024-02-03T14:37:46.959Z,64.56
2024-02-03T14:40:13.707Z,64.94
2024-02-03T14:42:40.234Z,65.00
2024-02-03T14:45:08.077Z,64.50
2024-02-03T14:47:34.624Z,65.41
2024-02-03T14:50:01.586Z,64.62
2024-02-03T14:52:28.380Z,65.06
2024-02-03T14:54:55.077Z,65.35
2024-02-03T14:57:23.896Z,64.77
2024-02-03T14:59:54.194Z,64.85
2024-02-03T15:02:21.319Z,64.50
2024-02-03T15:04:47.925Z,64.97
2024-02-03T15:07:14.817Z,64.97
2024-02-03T15:09:41.430Z,65.23
2024-02-03T15:12:08.022Z,65.21
2024-02-03T15:14:34.550Z,65.33
2024-02-03T15:17:01.032Z,64.67
2024-02-03T15:19:27.735Z,64.96
2024-02-03T15:21:54.440Z,64.86
2024-02-03T15:24:21.116Z,65.12
2024-02-03T15:26:47.657Z,65.04
2024-02-03T15:29:14.227Z,64.58
2024-02-03T15:31:40.838Z,64.98
2024-02-03T15:34:07.552Z,64.78
2024-02-03T15:36:34.210Z,64.83
2024-02-03T15:39:00.783Z,64.64
2024-02-03T15:41:27.352Z,64.51
2024-02-03T15:43:54.056Z,64.83
2024-02-03T15:46:30.229Z,64.84
2024-02-03T15:49:03.190Z,64.87
2024-02-03T15:51:29.848Z,64.69
2024-02-03T15:53:56.411Z,64.74
2024-02-03T15:56:23.150Z,64.96
2024-02-03T15:58:49.672Z,64.96
2024-02-03T16:01:16.447Z,64.71
2024-02-03T16:03:42.948Z,64.61
2024-02-03T16:06:10.101Z,64.98
2024-02-03T16:08:36.671Z,64.42
2024-02-03T16:11:03.413Z,64.81
2024-02-03T16:13:29.880Z,64.64
2024-02-03T16:15:57.390Z,64.58
2024-02-03T16:18:24.523Z,64.38
2024-02-03T16:20:51.197Z,64.74
2024-02-03T16:23:17.905Z,64.42
2024-02-03T16:25:44.497Z,64.65
2024-02-03T16:28:11.169Z,64.68
2024-02-03T16:30:37.892Z,64.97
2024-02-03T16:33:04.799Z,65.37
2024-02-03T16:35:31.718Z,65.05
2024-02-03T16:37:58.658Z,65.19
2024-02-03T16:40:25.265Z,65.40
2024-02-03T16:42:51.978Z,65.27
2024-02-03T16:45:18.489Z,64.83
2024-02-03T16:47:45.122Z,64.59
2024-02-03T16:50:11.717Z,65.12
2024-02-03T16:52:38.298Z,64.62
2024-02-03T16:55:05.286Z,64.54
2024-02-03T16:57:32.254Z,64.73
2024-02-03T16:59:59.154Z,64.90
2024-02-03T17:02:26.486Z,64.63
2024-02-03T17:04:53.310Z,64.89
2024-02-03T17:07:20.584Z,64.99
2024-02-03T17:09:47.249Z,65.02
2024-02-03T17:12:13.776Z,64.85
2024-02-03T17:14:40.345Z,65.31
2024-02-03T17:17:07.120Z,64.75
2024-02-03T17:19:34.006Z,64.68
2024-02-03T17:22:00.813Z,64.55
2024-02-03T17:24:27.541Z,65.29
2024-02-03T17:26:54.121Z,65.39
2024-02-03T17:29:20.799Z,64.88
2024-02-03T17:31:47.280Z,65.24
2024-02-03T17:34:13.954Z,64.84
2024-02-03T17:36:40.636Z,64.79
2024-02-03T17:39:07.290Z,65.08
2024-02-03T17:41:33.916Z,65.31
2024-02-03T17:44:00.427Z,65.49
2024-02-03T17:46:26.992Z,64.94
2024-02-03T17:48:54.189Z,65.13
2024-02-03T17:51:21.567Z,64.99
2024-02-03T17:53:48.093Z,65.21
2024-02-03T17:56:14.663Z,64.77
2024-02-03T17:58:41.197Z,65.18
2024-02-03T18:01:10.737Z,64.68
2024-02-03T18:03:39.323Z,65.32
2024-02-03T18:06:07.426Z,64.88
2024-02-03T18:08:34.093Z,64.69
2024-02-03T18:11:01.836Z,65.19
2024-02-03T18:13:28.414Z,65.05
2024-02-03T18:15:55.019Z,65.17
2024-02-03T18:18:22.844Z,65.07
2024-02-03T18:20:49.464Z,65.01
2024-02-03T18:23:16.007Z,64.74
2024-02-03T18:25:42.614Z,64.73
2024-02-03T18:28:09.696Z,64.60
2024-02-03T18:30:36.255Z,64.63
2024-02-03T18:33:02.916Z,65.18
2024-02-03T18:35:29.504Z,64.59
2024-02-03T18:37:56.091Z,64.67
2024-02-03T18:40:22.692Z,64.57
2024-02-03T18:42:49.328Z,64.91
2024-02-03T18:45:16.041Z,65.14
2024-02-03T18:47:42.768Z,64.75
2024-02-03T18:50:10.264Z,64.84
2024-02-03T18:52:37.037Z,65.26
2024-02-03T18:55:03.938Z,64.78
2024-02-03T18:57:31.141Z,64.88
2024-02-03T18:59:57.682Z,65.30
2024-02-03T19:02:24.203Z,64.95
2024-02-03T19:04:50.828Z,65.43
2024-02-03T19:07:17.511Z,65.25
2024-02-03T19:09:44.286Z,65.19
2024-02-03T19:12:12.608Z,64.72
2024-02-03T19:14:39.193Z,65.41
2024-02-03T19:17:06.053Z,64.80
2024-02-03T19:19:33.009Z,65.32
2024-02-03T19:21:59.859Z,64.97
2024-02-03T19:24:26.897Z,65.38
2024-02-03T19:26:53.519Z,64.79
2024-02-03T19:29:20.022Z,65.40
2024-02-03T19:31:46.693Z,65.32
2024-02-03T19:34:13.286Z,65.29
2024-02-03T19:36:39.979Z,65.19
2024-02-03T19:39:08.683Z,64.87
2024-02-03T19:41:36.300Z,65.56
2024-02-03T19:44:03.257Z,64.55
2024-02-03T19:46:29.855Z,64.94
2024-02-03T19:48:56.560Z,64.73
2024-02-03T19:51:23.195Z,65.14
2024-02-03T19:53:49.786Z,65.06
2024-02-03T19:56:16.338Z,65.37
2024-02-03T19:58:42.868Z,65.06
2024-02-03T20:01:09.556Z,65.46
2024-02-03T20:03:36.315Z,65.06
2024-02-03T20:06:03.191Z,65.45
2024-02-03T20:08:29.758Z,65.54
2024-02-03T20:10:57.220Z,65.06
2024-02-03T20:13:26.846Z,64.74
2024-02-03T20:15:54.732Z,65.00
2024-02-03T20:18:21.596Z,65.38
2024-02-03T20:20:53.305Z,64.95
2024-02-03T20:23:20.572Z,65.44
2024-02-03T20:25:47.145Z,65.39
2024-02-03T20:28:13.822Z,65.02
2024-02-03T20:30:40.755Z,65.58
2024-02-03T20:33:08.289Z,64.91
2024-02-03T20:35:35.137Z,65.22
2024-02-03T20:38:01.850Z,65.11
2024-02-03T20:40:28.639Z,65.32
2024-02-03T20:42:55.459Z,64.87
2024-02-03T20:45:22.866Z,65.04
2024-02-03T20:47:49.565Z,65.06
2024-02-03T20:50:16.235Z,65.05
2024-02-03T20:52:42.892Z,65.17
2024-02-03T20:55:09.570Z,65.00
2024-02-03T20:57:36.522Z,65.06
2024-02-03T21:00:04.094Z,65.26
2024-02-03T21:02:30.737Z,65.40
2024-02-03T21:04:57.548Z,65.18
2024-02-03T21:07:24.213Z,65.05
2024-02-03T21:09:51.033Z,64.99
2024-02-03T21:12:17.745Z,65.36
2024-02-03T21:14:44.609Z,64.97
2024-02-03T21:17:11.135Z,65.26
2024-02-03T21:19:38.559Z,65.28
2024-02-03T21:22:05.333Z,65.58
2024-02-03T21:24:31.899Z,65.20
2024-02-03T21:26:59.163Z,65.19
2024-02-03T21:29:25.728Z,65.65
2024-02-03T21:31:52.339Z,65.43
2024-02-03T21:34:18.992Z,65.34
2024-02-03T21:36:45.726Z,64.94
2024-02-03T21:39:12.856Z,64.99
2024-02-03T21:41:40.165Z,65.57
2024-02-03T21:44:07.309Z,65.43
2024-02-03T21:46:33.946Z,65.25
2024-02-03T21:49:00.658Z,65.33
2024-02-03T21:51:27.183Z,65.02
2024-02-03T21:53:53.796Z,65.02
2024-02-03T21:56:21.048Z,64.91
2024-02-03T21:58:47.818Z,65.52
2024-02-03T22:01:14.449Z,65.12
2024-02-03T22:03:41.189Z,65.64
2024-02-03T22:06:07.815Z,65.02
2024-02-03T22:08:34.700Z,65.35
2024-02-03T22:11:01.140Z,65.67
2024-02-03T22:13:28.378Z,65.19
2024-02-03T22:15:55.147Z,65.35
2024-02-03T22:18:22.320Z,65.21
2024-02-03T22:20:49.224Z,65.69
2024-02-03T22:23:15.825Z,65.61
2024-02-03T22:25:42.730Z,65.72
2024-02-03T22:28:09.409Z,65.32
2024-02-03T22:30:36.035Z,65.39
2024-02-03T22:33:04.719Z,65.71
2024-02-03T22:35:32.998Z,65.55
2024-02-03T22:38:00.219Z,65.03
2024-02-03T22:40:26.790Z,65.14
2024-02-03T22:42:53.592Z,65.48
2024-02-03T22:45:21.089Z,65.64
2024-02-03T22:47:50.699Z,65.21
2024-02-03T22:50:17.530Z,64.88
2024-02-03T22:52:44.162Z,65.63
2024-02-03T22:55:10.929Z,65.76
2024-02-03T22:57:37.462Z,65.25
2024-02-03T23:00:16.144Z,65.66
2024-02-03T23:02:42.811Z,65.66
2024-02-03T23:05:09.500Z,65.42
2024-02-03T23:07:36.078Z,65.49
2024-02-03T23:10:05.259Z,64.96
2024-02-03T23:12:31.998Z,65.18
2024-02-03T23:14:58.580Z,65.67
2024-02-03T23:17:25.954Z,64.97
2024-02-03T23:19:53.852Z,65.26
2024-02-03T23:22:20.640Z,65.35
2024-02-03T23:24:47.433Z,65.22
2024-02-03T23:27:14.194Z,65.30
2024-02-03T23:29:40.705Z,65.20
2024-02-03T23:32:08.040Z,65.48
2024-02-03T23:34:34.798Z,65.72
2024-02-03T23:37:01.466Z,65.88
2024-02-03T23:39:28.179Z,65.53
2024-02-03T23:41:54.734Z,65.64
2024-02-03T23:44:21.249Z,65.04
2024-02-03T23:46:48.205Z,65.04
2024-02-03T23:49:15.040Z,65.27
2024-02-03T23:51:41.635Z,65.65
2024-02-03T23:54:09.738Z,65.44
2024-02-03T23:56:36.350Z,65.04
2024-02-03T23:59:02.962Z,65.35
